Old River-Winfree, Texas
Current Conditions -  °F | °C
As of 8:15 AM on Thursday 18 Dec 2014 (Local Time) from K6R3 Reporting Station
Haze Haze  
Wind Chill: 54°   Ceiling: 800
Heat Index: 54°   Visibility: 4mi
Dew Point: 53°   Wind: 0mph
Humidity: 99%   Direction: NA
Pressure: 30.13"   Gusts: NA
Location:  30.0179°N, 94.9156°W
Report Text: K6R3 181415Z AUTO 00000KT 4SM BR OVC008 12/12 A3013 RMK AO2 T01210119
Loading
Personal Weather Stations






























Interactive Weather Map New forecast layout! Learn more

10-Day Weather Forecast

Advertisements
Track Severe Weather on mobile